createdAt,value
2019-05-05T00:00:11.320Z,21.52
2019-05-05T00:02:47.488Z,22.45
2019-05-05T00:05:20.150Z,26.10
2019-05-05T00:07:50.114Z,23.73
2019-05-05T00:10:27.491Z,20.55
2019-05-05T00:12:59.138Z,19.35
2019-05-05T00:15:36.989Z,22.48
2019-05-05T00:18:06.989Z,19.87
2019-05-05T00:20:40.442Z,23.30
2019-05-05T00:23:10.381Z,24.72
2019-05-05T00:25:40.361Z,21.60
2019-05-05T00:28:10.387Z,24.95
2019-05-05T00:30:40.401Z,23.77
2019-05-05T00:33:10.384Z,23.98
2019-05-05T00:35:40.312Z,27.27
2019-05-05T00:38:10.260Z,25.37
2019-05-05T00:40:40.407Z,25.52
2019-05-05T00:43:10.376Z,28.05
2019-05-05T00:45:42.477Z,24.57
2019-05-05T00:48:15.272Z,27.67
2019-05-05T00:50:46.394Z,26.97
2019-05-05T00:53:16.423Z,28.87
2019-05-05T00:55:46.401Z,28.55
2019-05-05T00:58:16.391Z,31.55
2019-05-05T01:00:48.319Z,30.75
2019-05-05T01:03:19.961Z,27.20
2019-05-05T01:06:00.326Z,29.52
2019-05-05T01:08:30.391Z,26.60
2019-05-05T01:11:00.350Z,26.25
2019-05-05T01:13:30.304Z,29.15
2019-05-05T01:16:00.264Z,26.70
2019-05-05T01:18:30.196Z,28.10
2019-05-05T01:21:00.158Z,26.02
2019-05-05T01:23:30.160Z,26.97
2019-05-05T01:26:00.724Z,28.45
2019-05-05T01:28:30.742Z,31.33
2019-05-05T01:31:02.339Z,28.10
2019-05-05T01:33:34.423Z,31.42
2019-05-05T01:36:05.427Z,35.40
2019-05-05T01:38:37.100Z,31.73
2019-05-05T01:41:09.663Z,32.67
2019-05-05T01:43:39.715Z,30.23
2019-05-05T01:46:10.582Z,31.60
2019-05-05T01:48:40.575Z,29.45
2019-05-05T01:51:10.498Z,32.42
2019-05-05T01:53:40.451Z,30.43
2019-05-05T01:56:10.774Z,30.88
2019-05-05T01:58:40.957Z,30.60
2019-05-05T02:01:10.922Z,27.35
2019-05-05T02:03:40.892Z,28.85
2019-05-05T02:06:10.828Z,27.62
2019-05-05T02:08:40.777Z,29.23
2019-05-05T02:11:10.794Z,29.18
2019-05-05T02:13:40.779Z,27.85
2019-05-05T02:16:10.799Z,27.82
2019-05-05T02:18:40.727Z,29.82
2019-05-05T02:21:10.658Z,31.17
2019-05-05T02:23:40.687Z,32.55
2019-05-05T02:26:10.935Z,33.80
2019-05-05T02:28:48.272Z,30.25
2019-05-05T02:31:38.266Z,30.75
2019-05-05T02:34:10.024Z,30.23
2019-05-05T02:36:40.048Z,31.07
2019-05-05T02:39:10.952Z,31.95
2019-05-05T02:41:41.849Z,27.48
2019-05-05T02:44:15.490Z,26.20
2019-05-05T02:46:48.105Z,25.20
2019-05-05T02:49:18.471Z,25.70
2019-05-05T02:51:55.151Z,25.10
2019-05-05T02:54:24.864Z,23.40
2019-05-05T02:56:55.342Z,24.47
2019-05-05T02:59:32.484Z,26.48
2019-05-05T03:02:09.978Z,26.87
2019-05-05T03:04:41.053Z,26.48
2019-05-05T03:07:13.810Z,25.90
2019-05-05T03:09:45.392Z,29.55
2019-05-05T03:12:20.073Z,28.40
2019-05-05T03:14:53.629Z,30.43
2019-05-05T03:17:24.037Z,29.52
2019-05-05T03:19:54.594Z,31.48
2019-05-05T03:22:25.914Z,27.93
2019-05-05T03:24:56.113Z,28.32
2019-05-05T03:27:26.599Z,28.05
2019-05-05T03:29:56.826Z,27.77
2019-05-05T03:32:27.406Z,26.10
2019-05-05T03:34:57.626Z,26.70
2019-05-05T03:37:27.813Z,28.10
2019-05-05T03:39:59.655Z,27.90
2019-05-05T03:42:31.249Z,26.27
2019-05-05T03:45:04.168Z,28.17
2019-05-05T03:47:34.414Z,25.77
2019-05-05T03:50:07.106Z,25.23
2019-05-05T03:52:37.359Z,27.70
2019-05-05T03:55:08.871Z,27.40
2019-05-05T03:57:40.046Z,29.70
2019-05-05T04:00:10.487Z,29.07
2019-05-05T04:02:44.837Z,29.52
2019-05-05T04:05:17.488Z,28.23
2019-05-05T04:07:47.598Z,26.95
2019-05-05T04:10:18.142Z,27.93
2019-05-05T04:12:48.930Z,24.00
2019-05-05T04:15:18.925Z,26.30
2019-05-05T04:17:59.766Z,24.07
2019-05-05T04:20:30.888Z,22.70
2019-05-05T04:23:00.837Z,23.22
2019-05-05T04:25:30.842Z,22.15
2019-05-05T04:28:00.886Z,24.27
2019-05-05T04:30:33.686Z,19.30
2019-05-05T04:33:04.063Z,22.58
2019-05-05T04:35:34.183Z,21.37
2019-05-05T04:38:04.724Z,17.73
2019-05-05T04:40:34.976Z,16.60
2019-05-05T04:43:04.936Z,17.07
2019-05-05T04:45:34.969Z,15.95
2019-05-05T04:48:13.753Z,14.80
2019-05-05T04:50:48.371Z,15.35
2019-05-05T04:53:20.039Z,14.07
2019-05-05T04:55:50.101Z,12.55
2019-05-05T04:58:20.104Z,13.13
2019-05-05T05:00:50.066Z,13.75
2019-05-05T05:03:40.165Z,13.68
2019-05-05T05:06:14.772Z,12.40
2019-05-05T05:08:45.194Z,15.30
2019-05-05T05:11:15.148Z,13.18
2019-05-05T05:13:45.165Z,10.25
2019-05-05T05:16:15.090Z,9.70
2019-05-05T05:18:45.145Z,9.00
2019-05-05T05:21:15.042Z,7.75
2019-05-05T05:23:45.003Z,7.05
2019-05-05T05:26:15.002Z,6.83
2019-05-05T05:28:44.934Z,5.65
2019-05-05T05:31:14.924Z,5.67
2019-05-05T05:33:44.838Z,4.90
2019-05-05T05:36:14.759Z,4.53
2019-05-05T05:38:47.401Z,4.30
2019-05-05T05:41:19.064Z,4.55
2019-05-05T05:43:56.919Z,4.67
2019-05-05T05:46:34.457Z,4.58
2019-05-05T05:49:06.861Z,4.37
2019-05-05T05:51:37.375Z,4.10
2019-05-05T05:54:08.927Z,4.28
2019-05-05T05:56:38.838Z,4.40
2019-05-05T05:59:08.810Z,4.60
2019-05-05T06:01:38.744Z,4.30
2019-05-05T06:04:08.671Z,5.67
2019-05-05T06:06:38.596Z,4.05
2019-05-05T06:09:08.531Z,3.75
2019-05-05T06:11:38.630Z,4.20
2019-05-05T06:14:08.527Z,3.77
2019-05-05T06:16:38.435Z,4.42
2019-05-05T06:19:10.282Z,3.87
2019-05-05T06:21:40.070Z,4.08
2019-05-05T06:24:10.092Z,4.70
2019-05-05T06:26:40.001Z,4.37
2019-05-05T06:29:10.000Z,3.62
2019-05-05T06:31:39.990Z,4.05
2019-05-05T06:34:10.000Z,3.55
2019-05-05T06:36:39.991Z,3.35
2019-05-05T06:39:09.902Z,2.90
2019-05-05T06:41:44.303Z,3.02
2019-05-05T06:44:34.355Z,2.92
2019-05-05T06:47:05.935Z,3.70
2019-05-05T06:49:36.732Z,3.27
2019-05-05T06:52:06.671Z,3.98
2019-05-05T06:54:36.839Z,3.85
2019-05-05T06:57:06.845Z,4.40
2019-05-05T06:59:36.874Z,4.00
2019-05-05T07:02:06.833Z,4.22
2019-05-05T07:04:36.751Z,3.60
2019-05-05T07:07:06.690Z,4.00
2019-05-05T07:09:36.615Z,4.65
2019-05-05T07:12:06.598Z,4.37
2019-05-05T07:14:36.524Z,4.58
2019-05-05T07:17:06.536Z,4.95
2019-05-05T07:19:36.535Z,5.58
2019-05-05T07:22:06.440Z,5.05
2019-05-05T07:24:36.340Z,5.22
2019-05-05T07:27:06.242Z,5.70
2019-05-05T07:29:36.147Z,5.50
2019-05-05T07:32:06.102Z,5.90
2019-05-05T07:34:54.640Z,6.08
2019-05-05T07:37:25.812Z,8.43
2019-05-05T07:39:55.732Z,5.72
2019-05-05T07:42:25.639Z,6.28
2019-05-05T07:44:55.558Z,5.95
2019-05-05T07:47:25.479Z,6.10
2019-05-05T07:49:56.260Z,5.70
2019-05-05T07:52:26.160Z,5.42
2019-05-05T07:54:57.197Z,5.53
2019-05-05T07:57:27.188Z,5.20
2019-05-05T07:59:57.187Z,5.50
2019-05-05T08:02:27.190Z,4.85
2019-05-05T08:04:57.103Z,4.83
2019-05-05T08:07:27.023Z,5.00
2019-05-05T08:09:56.933Z,5.45
2019-05-05T08:12:26.866Z,4.40
2019-05-05T08:14:56.786Z,4.53
2019-05-05T08:17:28.396Z,5.20
2019-05-05T08:20:04.009Z,8.43
2019-05-05T08:22:34.202Z,5.15
2019-05-05T08:25:14.363Z,5.37
2019-05-05T08:27:45.475Z,5.60
2019-05-05T08:30:24.427Z,6.37
2019-05-05T08:32:54.659Z,5.78
2019-05-05T08:35:24.724Z,5.42
2019-05-05T08:37:54.741Z,4.97
2019-05-05T08:40:24.743Z,8.45
2019-05-05T08:42:54.645Z,5.35
2019-05-05T08:45:26.699Z,5.22
2019-05-05T08:47:56.301Z,4.83
2019-05-05T08:50:27.277Z,5.37
2019-05-05T08:52:57.295Z,5.58
2019-05-05T08:55:28.474Z,5.47
2019-05-05T08:57:58.573Z,5.78
2019-05-05T09:00:28.596Z,6.47
2019-05-05T09:02:58.534Z,4.78
2019-05-05T09:05:28.451Z,4.40
2019-05-05T09:07:58.372Z,5.72
2019-05-05T09:10:28.285Z,5.60
2019-05-05T09:12:58.205Z,5.12
2019-05-05T09:15:28.215Z,4.85
2019-05-05T09:17:58.138Z,5.25
2019-05-05T09:20:28.052Z,3.80
2019-05-05T09:22:57.964Z,5.78
2019-05-05T09:25:45.919Z,4.80
2019-05-05T09:28:20.463Z,5.35
2019-05-05T09:30:53.518Z,8.03
2019-05-05T09:33:24.774Z,5.42
2019-05-05T09:35:54.919Z,5.62
2019-05-05T09:38:25.019Z,5.92
2019-05-05T09:40:55.019Z,5.22
2019-05-05T09:43:24.994Z,5.25
2019-05-05T09:45:54.987Z,6.97
2019-05-05T09:48:25.020Z,5.65
2019-05-05T09:50:55.812Z,7.30
2019-05-05T09:53:27.349Z,5.62
2019-05-05T09:55:57.468Z,5.12
2019-05-05T09:58:27.426Z,4.90
2019-05-05T10:00:57.490Z,6.05
2019-05-05T10:03:27.414Z,6.90
2019-05-05T10:05:57.470Z,5.00
2019-05-05T10:08:27.466Z,5.55
2019-05-05T10:10:57.577Z,5.58
2019-05-05T10:13:27.529Z,4.80
2019-05-05T10:15:57.444Z,6.78
2019-05-05T10:18:27.451Z,6.03
2019-05-05T10:20:57.362Z,6.58
2019-05-05T10:23:28.960Z,6.37
2019-05-05T10:26:04.364Z,5.85
2019-05-05T10:28:35.602Z,6.53
2019-05-05T10:31:05.568Z,5.55
2019-05-05T10:33:37.155Z,6.45
2019-05-05T10:36:07.054Z,5.45
2019-05-05T10:38:38.930Z,8.30
2019-05-05T10:41:08.837Z,6.97
2019-05-05T10:43:38.760Z,6.58
2019-05-05T10:46:08.775Z,6.30
2019-05-05T10:48:38.701Z,5.17
2019-05-05T10:51:09.435Z,5.15
2019-05-05T10:53:39.370Z,5.37
2019-05-05T10:56:09.639Z,5.28
2019-05-05T10:58:39.550Z,5.22
2019-05-05T11:01:09.555Z,6.12
2019-05-05T11:03:39.685Z,6.35
2019-05-05T11:06:09.828Z,7.10
2019-05-05T11:08:40.192Z,5.58
2019-05-05T11:11:10.111Z,5.00
2019-05-05T11:13:42.745Z,6.65
2019-05-05T11:16:11.708Z,6.95
2019-05-05T11:18:42.191Z,6.40
2019-05-05T11:21:14.316Z,4.47
2019-05-05T11:23:44.785Z,5.97
2019-05-05T11:26:14.893Z,5.65
2019-05-05T11:28:44.856Z,6.30
2019-05-05T11:31:14.794Z,5.25
2019-05-05T11:33:58.430Z,4.97
2019-05-05T11:36:38.796Z,4.67
2019-05-05T11:39:09.106Z,3.95
2019-05-05T11:41:39.099Z,4.35
2019-05-05T11:44:09.045Z,4.03
2019-05-05T11:46:39.083Z,4.70
2019-05-05T11:49:09.048Z,5.12
2019-05-05T11:51:40.668Z,6.50
2019-05-05T11:54:10.643Z,6.87
2019-05-05T11:56:40.599Z,5.30
2019-05-05T11:59:10.528Z,6.12
2019-05-05T12:01:40.444Z,5.40
2019-05-05T12:04:12.010Z,7.37
2019-05-05T12:06:44.118Z,6.35
2019-05-05T12:09:15.476Z,7.20
2019-05-05T12:11:45.471Z,5.80
2019-05-05T12:14:17.059Z,6.00
2019-05-05T12:16:48.170Z,6.37
2019-05-05T12:19:18.110Z,5.50
2019-05-05T12:21:48.048Z,6.03
2019-05-05T12:24:19.618Z,4.83
2019-05-05T12:26:51.152Z,6.60
2019-05-05T12:29:21.083Z,6.78
2019-05-05T12:31:50.981Z,5.97
2019-05-05T12:34:20.893Z,5.12
2019-05-05T12:36:50.817Z,6.60
2019-05-05T12:39:20.755Z,15.35
2019-05-05T12:41:50.932Z,8.03
2019-05-05T12:44:23.621Z,5.37
2019-05-05T12:46:55.435Z,7.75
2019-05-05T12:49:25.515Z,6.80
2019-05-05T12:51:56.533Z,8.50
2019-05-05T12:54:26.587Z,5.80
2019-05-05T12:56:56.675Z,9.03
2019-05-05T12:59:26.955Z,8.45
2019-05-05T13:01:56.895Z,5.72
2019-05-05T13:04:26.928Z,6.12
2019-05-05T13:06:56.918Z,5.92
2019-05-05T13:09:27.460Z,4.78
2019-05-05T13:11:57.471Z,5.08
2019-05-05T13:14:27.423Z,7.30
2019-05-05T13:16:57.415Z,6.45
2019-05-05T13:19:28.968Z,5.47
2019-05-05T13:22:06.555Z,6.83
2019-05-05T13:24:43.648Z,4.40
2019-05-05T13:27:30.499Z,7.97
2019-05-05T13:30:07.424Z,6.03
2019-05-05T13:32:37.571Z,6.45
2019-05-05T13:35:07.558Z,5.35
2019-05-05T13:37:37.390Z,4.83
2019-05-05T13:40:07.758Z,4.95
2019-05-05T13:42:37.678Z,5.92
2019-05-05T13:45:29.953Z,6.97
2019-05-05T13:48:00.241Z,7.75
2019-05-05T13:50:34.127Z,6.50
2019-05-05T13:53:05.229Z,5.33
2019-05-05T13:55:35.194Z,5.35
2019-05-05T13:58:08.372Z,5.05
2019-05-05T14:00:37.315Z,6.05
2019-05-05T14:03:07.311Z,7.53
2019-05-05T14:05:37.371Z,5.40
2019-05-05T14:08:07.472Z,6.75
2019-05-05T14:10:37.485Z,6.42
2019-05-05T14:13:10.376Z,8.68
2019-05-05T14:15:39.171Z,4.55
2019-05-05T14:18:09.151Z,9.13
2019-05-05T14:20:39.081Z,9.33
2019-05-05T14:23:08.984Z,7.87
2019-05-05T14:25:38.963Z,7.72
2019-05-05T14:28:09.029Z,7.05
2019-05-05T14:30:55.826Z,9.98
2019-05-05T14:33:31.444Z,7.03
2019-05-05T14:36:15.267Z,11.18
2019-05-05T14:38:49.435Z,7.47
2019-05-05T14:41:18.817Z,9.15
2019-05-05T14:43:48.788Z,6.58
2019-05-05T14:46:18.736Z,6.20
2019-05-05T14:48:48.730Z,7.33
2019-05-05T14:51:18.803Z,8.13
2019-05-05T14:53:49.539Z,7.15
2019-05-05T14:56:19.560Z,6.50
2019-05-05T14:58:49.556Z,9.48
2019-05-05T15:01:19.524Z,8.73
2019-05-05T15:03:49.500Z,8.13
2019-05-05T15:06:27.326Z,9.88
2019-05-05T15:09:14.024Z,9.65
2019-05-05T15:11:48.562Z,18.10
2019-05-05T15:14:18.556Z,9.68
2019-05-05T15:16:48.515Z,11.83
2019-05-05T15:19:18.533Z,19.32
2019-05-05T15:21:48.976Z,13.75
2019-05-05T15:24:20.411Z,13.50
2019-05-05T15:26:54.296Z,14.30
2019-05-05T15:29:22.081Z,15.43
2019-05-05T15:31:53.725Z,13.50
2019-05-05T15:34:24.156Z,13.00
2019-05-05T15:36:54.785Z,15.80
2019-05-05T15:39:25.009Z,11.03
2019-05-05T15:41:55.032Z,12.75
2019-05-05T15:44:34.487Z,15.18
2019-05-05T15:47:04.599Z,10.70
2019-05-05T15:49:34.675Z,10.25
2019-05-05T15:52:07.059Z,12.07
2019-05-05T15:54:36.689Z,11.90
2019-05-05T15:57:08.788Z,20.70
2019-05-05T15:59:38.304Z,34.13
2019-05-05T16:02:08.279Z,17.00
2019-05-05T16:04:38.227Z,10.28
2019-05-05T16:07:08.635Z,10.38
2019-05-05T16:09:38.674Z,8.05
2019-05-05T16:12:08.627Z,9.08
2019-05-05T16:14:40.239Z,7.60
2019-05-05T16:17:13.550Z,11.53
2019-05-05T16:19:46.160Z,8.63
2019-05-05T16:22:25.462Z,11.05
2019-05-05T16:25:10.947Z,15.32
2019-05-05T16:27:44.006Z,10.72
2019-05-05T16:30:15.622Z,9.83
2019-05-05T16:32:45.732Z,10.38
2019-05-05T16:35:16.068Z,13.08
2019-05-05T16:37:46.073Z,11.22
2019-05-05T16:40:16.570Z,18.65
2019-05-05T16:42:46.522Z,13.80
2019-05-05T16:45:17.135Z,6.50
2019-05-05T16:47:47.207Z,6.65
2019-05-05T16:50:17.490Z,9.03
2019-05-05T16:52:49.216Z,7.42
2019-05-05T16:55:30.615Z,9.18
2019-05-05T16:58:00.792Z,7.40
2019-05-05T17:00:31.672Z,7.55
2019-05-05T17:03:01.674Z,7.75
2019-05-05T17:05:31.872Z,7.75
2019-05-05T17:08:01.836Z,8.25
2019-05-05T17:10:31.803Z,11.38
2019-05-05T17:13:03.626Z,16.97
2019-05-05T17:15:35.521Z,14.18
2019-05-05T17:18:08.588Z,20.32
2019-05-05T17:20:56.874Z,20.92
2019-05-05T17:23:26.880Z,17.87
2019-05-05T17:25:56.857Z,12.63
2019-05-05T17:28:26.930Z,22.35
2019-05-05T17:30:56.956Z,14.87
2019-05-05T17:33:26.944Z,20.70
2019-05-05T17:35:56.947Z,20.23
2019-05-05T17:38:34.117Z,17.92
2019-05-05T17:41:07.171Z,12.90
2019-05-05T17:43:54.269Z,12.35
2019-05-05T17:46:28.763Z,11.63
2019-05-05T17:49:00.370Z,10.95
2019-05-05T17:51:50.196Z,11.88
2019-05-05T17:54:34.035Z,13.32
2019-05-05T17:57:14.117Z,11.73
2019-05-05T17:59:44.164Z,11.63
2019-05-05T18:02:15.265Z,11.45
2019-05-05T18:04:45.899Z,10.20
2019-05-05T18:07:34.468Z,13.05
2019-05-05T18:10:09.054Z,10.75
2019-05-05T18:12:56.040Z,11.78
2019-05-05T18:15:43.703Z,9.33
2019-05-05T18:18:13.940Z,9.85
2019-05-05T18:20:44.937Z,10.78
2019-05-05T18:23:16.168Z,9.40
2019-05-05T18:25:46.397Z,11.83
2019-05-05T18:28:19.984Z,8.83
2019-05-05T18:30:48.092Z,8.33
2019-05-05T18:33:18.370Z,10.93
2019-05-05T18:35:48.428Z,11.40
2019-05-05T18:38:18.367Z,8.75
2019-05-05T18:40:49.418Z,8.95
2019-05-05T18:43:20.982Z,9.05
2019-05-05T18:45:53.726Z,9.15
2019-05-05T18:48:23.854Z,7.20
2019-05-05T18:50:54.192Z,8.93
2019-05-05T18:53:24.303Z,9.48
2019-05-05T18:55:54.280Z,7.22
2019-05-05T18:58:29.693Z,10.45
2019-05-05T19:01:00.693Z,7.95
2019-05-05T19:03:33.737Z,11.35
2019-05-05T19:06:08.431Z,10.03
2019-05-05T19:08:51.829Z,8.33
2019-05-05T19:11:11.697Z,12.30
2019-05-05T19:13:41.666Z,12.98
2019-05-05T19:16:11.744Z,10.72
2019-05-05T19:18:41.749Z,9.48
2019-05-05T19:21:14.257Z,10.75
2019-05-05T19:23:44.815Z,9.40
2019-05-05T19:26:14.894Z,10.70
2019-05-05T19:28:49.928Z,10.95
2019-05-05T19:31:17.602Z,10.68
2019-05-05T19:33:47.691Z,10.25
2019-05-05T19:36:17.749Z,11.22
2019-05-05T19:38:47.772Z,10.88
2019-05-05T19:41:17.799Z,14.58
2019-05-05T19:43:54.739Z,13.48
2019-05-05T19:46:27.048Z,16.30
2019-05-05T19:49:16.034Z,13.60
2019-05-05T19:51:46.798Z,13.28
2019-05-05T19:54:17.025Z,20.70
2019-05-05T19:56:47.108Z,17.42
2019-05-05T19:59:18.159Z,24.60
2019-05-05T20:01:48.196Z,25.65
2019-05-05T20:04:18.297Z,14.07
2019-05-05T20:06:48.313Z,17.73
2019-05-05T20:09:18.251Z,12.73
2019-05-05T20:11:48.309Z,15.15
2019-05-05T20:14:18.327Z,21.23
2019-05-05T20:17:06.373Z,19.80
2019-05-05T20:19:37.965Z,15.48
2019-05-05T20:22:08.000Z,10.70
2019-05-05T20:24:38.023Z,8.93
2019-05-05T20:27:08.155Z,9.93
2019-05-05T20:29:38.265Z,9.75
2019-05-05T20:32:08.314Z,9.68
2019-05-05T20:34:40.015Z,11.48
2019-05-05T20:37:17.475Z,9.28
2019-05-05T20:39:49.166Z,12.05
2019-05-05T20:42:19.148Z,9.80
2019-05-05T20:44:49.110Z,9.85
2019-05-05T20:47:19.126Z,12.60
2019-05-05T20:49:49.282Z,10.78
2019-05-05T20:52:19.363Z,12.85
2019-05-05T20:54:49.468Z,9.83
2019-05-05T20:57:19.406Z,11.12
2019-05-05T20:59:49.511Z,15.40
2019-05-05T21:02:19.522Z,13.62
2019-05-05T21:04:49.553Z,11.22
2019-05-05T21:07:19.567Z,9.83
2019-05-05T21:09:49.584Z,9.15
2019-05-05T21:12:19.600Z,10.75
2019-05-05T21:14:49.609Z,7.10
2019-05-05T21:17:19.600Z,6.70
2019-05-05T21:19:49.535Z,5.55
2019-05-05T21:22:33.963Z,10.18
2019-05-05T21:25:08.338Z,8.55
2019-05-05T21:27:43.530Z,7.22
2019-05-05T21:30:14.296Z,6.08
2019-05-05T21:32:44.397Z,8.73
2019-05-05T21:35:14.334Z,5.72
2019-05-05T21:37:44.854Z,6.87
2019-05-05T21:40:15.929Z,6.45
2019-05-05T21:42:45.838Z,9.40
2019-05-05T21:45:15.772Z,7.40
2019-05-05T21:47:48.481Z,6.22
2019-05-05T21:50:20.038Z,7.85
2019-05-05T21:52:54.608Z,6.65
2019-05-05T21:55:33.986Z,8.78
2019-05-05T21:58:08.767Z,8.25
2019-05-05T22:00:50.231Z,9.13
2019-05-05T22:03:24.945Z,10.50
2019-05-05T22:05:56.034Z,7.65
2019-05-05T22:08:26.220Z,10.18
2019-05-05T22:10:56.157Z,9.78
2019-05-05T22:13:26.177Z,11.00
2019-05-05T22:15:56.179Z,9.28
2019-05-05T22:18:26.211Z,9.15
2019-05-05T22:21:06.919Z,11.83
2019-05-05T22:23:37.095Z,11.25
2019-05-05T22:26:07.018Z,11.95
2019-05-05T22:28:37.047Z,11.90
2019-05-05T22:31:07.056Z,9.90
2019-05-05T22:33:37.279Z,11.08
2019-05-05T22:36:07.248Z,12.88
2019-05-05T22:38:38.411Z,10.35
2019-05-05T22:41:08.409Z,18.65
2019-05-05T22:43:38.425Z,10.43
2019-05-05T22:46:08.396Z,13.03
2019-05-05T22:48:38.346Z,11.70
2019-05-05T22:51:08.364Z,10.48
2019-05-05T22:53:38.391Z,15.68
2019-05-05T22:56:08.345Z,11.60
2019-05-05T22:58:38.353Z,14.35
2019-05-05T23:01:09.187Z,12.23
2019-05-05T23:03:40.758Z,13.10
2019-05-05T23:06:13.798Z,11.05
2019-05-05T23:08:46.983Z,12.28
2019-05-05T23:11:17.043Z,11.45
2019-05-05T23:13:46.996Z,14.15
2019-05-05T23:16:21.535Z,10.55
2019-05-05T23:18:51.555Z,10.85
2019-05-05T23:21:26.226Z,13.53
2019-05-05T23:24:14.615Z,13.93
2019-05-05T23:26:46.231Z,12.47
2019-05-05T23:29:16.164Z,13.08
2019-05-05T23:31:49.130Z,14.38
2019-05-05T23:34:19.055Z,13.78
2019-05-05T23:36:49.005Z,13.90
2019-05-05T23:39:20.018Z,12.78
2019-05-05T23:41:49.967Z,12.88
2019-05-05T23:44:19.947Z,13.55
2019-05-05T23:46:49.884Z,11.75
2019-05-05T23:49:19.908Z,14.20
2019-05-05T23:51:50.842Z,10.95
2019-05-05T23:54:20.798Z,13.03
2019-05-05T23:56:53.794Z,14.33
2019-05-05T23:59:24.089Z,14.63
